sensor_id;sensor_type;location;lat;lon;timestamp;pressure;altitude;pressure_sealevel;temperature;humidity
21547;BME280;41275;51.912;4.388;2023-03-05T00:00:48;102322.31;;;10.98;46.42
21547;BME280;41275;51.912;4.388;2023-03-05T00:06:10;102327.16;;;10.95;46.64
21547;BME280;41275;51.912;4.388;2023-03-05T00:11:31;102318.19;;;10.96;46.82
21547;BME280;41275;51.912;4.388;2023-03-05T00:16:53;102322.28;;;11.26;46.78
21547;BME280;41275;51.912;4.388;2023-03-05T00:22:14;102311.16;;;11.38;46.02
21547;BME280;41275;51.912;4.388;2023-03-05T00:27:36;102296.28;;;11.37;46.12
21547;BME280;41275;51.912;4.388;2023-03-05T00:32:57;102295.56;;;11.21;46.00
21547;BME280;41275;51.912;4.388;2023-03-05T00:38:18;102284.84;;;11.01;46.58
21547;BME280;41275;51.912;4.388;2023-03-05T00:43:40;102284.56;;;10.96;46.87
21547;BME280;41275;51.912;4.388;2023-03-05T00:49:01;102286.69;;;11.07;47.26
21547;BME280;41275;51.912;4.388;2023-03-05T00:54:22;102275.78;;;11.17;47.03
21547;BME280;41275;51.912;4.388;2023-03-05T00:59:44;102259.78;;;11.39;46.84
21547;BME280;41275;51.912;4.388;2023-03-05T01:05:05;102256.41;;;11.58;46.80
21547;BME280;41275;51.912;4.388;2023-03-05T01:10:27;102257.88;;;11.67;46.59
21547;BME280;41275;51.912;4.388;2023-03-05T01:15:50;102259.72;;;11.73;46.71
21547;BME280;41275;51.912;4.388;2023-03-05T01:21:11;102247.91;;;11.83;46.67
21547;BME280;41275;51.912;4.388;2023-03-05T01:26:32;102243.88;;;11.87;46.44
21547;BME280;41275;51.912;4.388;2023-03-05T01:31:54;102237.06;;;11.71;46.57
21547;BME280;41275;51.912;4.388;2023-03-05T01:37:15;102221.16;;;11.77;46.35
21547;BME280;41275;51.912;4.388;2023-03-05T01:42:36;102218.59;;;11.91;46.34
21547;BME280;41275;51.912;4.388;2023-03-05T01:47:58;102203.91;;;11.95;46.36
21547;BME280;41275;51.912;4.388;2023-03-05T01:53:19;102194.72;;;11.97;46.46
21547;BME280;41275;51.912;4.388;2023-03-05T01:58:40;102182.69;;;12.01;45.98
21547;BME280;41275;51.912;4.388;2023-03-05T02:04:01;102185.34;;;11.95;45.79
21547;BME280;41275;51.912;4.388;2023-03-05T02:09:23;102170.78;;;11.77;46.19
21547;BME280;41275;51.912;4.388;2023-03-05T02:14:46;102153.81;;;11.65;46.18
21547;BME280;41275;51.912;4.388;2023-03-05T02:20:13;102153.41;;;11.62;46.31
21547;BME280;41275;51.912;4.388;2023-03-05T02:25:35;102139.56;;;11.73;46.21
21547;BME280;41275;51.912;4.388;2023-03-05T02:30:56;102126.09;;;11.74;45.97
21547;BME280;41275;51.912;4.388;2023-03-05T02:36:18;102131.00;;;11.77;46.09
21547;BME280;41275;51.912;4.388;2023-03-05T02:41:39;102136.53;;;11.76;46.13
21547;BME280;41275;51.912;4.388;2023-03-05T02:47:00;102126.72;;;11.63;46.12
21547;BME280;41275;51.912;4.388;2023-03-05T02:52:22;102124.41;;;10.92;46.61
21547;BME280;41275;51.912;4.388;2023-03-05T02:57:43;102109.00;;;10.68;48.29
21547;BME280;41275;51.912;4.388;2023-03-05T03:03:05;102117.13;;;10.60;48.87
21547;BME280;41275;51.912;4.388;2023-03-05T03:08:26;102105.91;;;10.57;49.54
21547;BME280;41275;51.912;4.388;2023-03-05T03:13:47;102103.44;;;10.56;50.01
21547;BME280;41275;51.912;4.388;2023-03-05T03:19:08;102088.22;;;10.58;50.63
21547;BME280;41275;51.912;4.388;2023-03-05T03:24:30;102080.88;;;10.60;50.97
21547;BME280;41275;51.912;4.388;2023-03-05T03:29:52;102077.22;;;10.61;50.83
21547;BME280;41275;51.912;4.388;2023-03-05T03:35:13;102064.28;;;10.45;51.36
21547;BME280;41275;51.912;4.388;2023-03-05T03:40:34;102049.84;;;10.47;51.38
21547;BME280;41275;51.912;4.388;2023-03-05T03:45:57;102057.91;;;10.67;51.47
21547;BME280;41275;51.912;4.388;2023-03-05T03:51:18;102056.72;;;10.76;51.22
21547;BME280;41275;51.912;4.388;2023-03-05T03:56:39;102062.84;;;10.77;51.76
21547;BME280;41275;51.912;4.388;2023-03-05T04:02:01;102041.41;;;10.65;51.17
21547;BME280;41275;51.912;4.388;2023-03-05T04:07:22;102040.91;;;10.48;51.46
21547;BME280;41275;51.912;4.388;2023-03-05T04:12:43;102036.25;;;10.50;51.72
21547;BME280;41275;51.912;4.388;2023-03-05T04:18:06;102025.88;;;10.55;51.41
21547;BME280;41275;51.912;4.388;2023-03-05T04:23:27;102019.31;;;10.45;51.49
21547;BME280;41275;51.912;4.388;2023-03-05T04:28:48;102023.28;;;10.27;51.85
21547;BME280;41275;51.912;4.388;2023-03-05T04:34:09;102014.03;;;10.17;52.04
21547;BME280;41275;51.912;4.388;2023-03-05T04:39:31;102010.19;;;10.19;52.46
21547;BME280;41275;51.912;4.388;2023-03-05T04:44:52;102001.16;;;10.35;52.54
21547;BME280;41275;51.912;4.388;2023-03-05T04:50:13;102004.75;;;10.69;52.15
21547;BME280;41275;51.912;4.388;2023-03-05T04:55:35;102007.97;;;10.57;51.57
21547;BME280;41275;51.912;4.388;2023-03-05T05:01:00;101981.50;;;10.23;52.18
21547;BME280;41275;51.912;4.388;2023-03-05T05:06:22;101982.38;;;10.02;51.89
21547;BME280;41275;51.912;4.388;2023-03-05T05:11:43;101970.28;;;9.86;52.35
21547;BME280;41275;51.912;4.388;2023-03-05T05:17:05;101967.78;;;9.78;52.03
21547;BME280;41275;51.912;4.388;2023-03-05T05:22:27;101958.63;;;9.74;52.19
21547;BME280;41275;51.912;4.388;2023-03-05T05:27:49;101955.75;;;9.69;52.17
21547;BME280;41275;51.912;4.388;2023-03-05T05:33:10;101952.09;;;9.70;52.10
21547;BME280;41275;51.912;4.388;2023-03-05T05:38:32;101950.97;;;9.86;52.66
21547;BME280;41275;51.912;4.388;2023-03-05T05:43:53;101950.28;;;10.05;52.02
21547;BME280;41275;51.912;4.388;2023-03-05T05:49:14;101946.47;;;10.14;52.38
21547;BME280;41275;51.912;4.388;2023-03-05T05:54:35;101942.91;;;10.28;52.13
21547;BME280;41275;51.912;4.388;2023-03-05T05:59:56;101939.47;;;10.35;52.05
21547;BME280;41275;51.912;4.388;2023-03-05T06:05:18;101941.56;;;10.52;52.10
21547;BME280;41275;51.912;4.388;2023-03-05T06:10:39;101925.44;;;10.34;51.74
21547;BME280;41275;51.912;4.388;2023-03-05T06:16:03;101928.66;;;10.29;51.79
21547;BME280;41275;51.912;4.388;2023-03-05T06:21:25;101935.63;;;10.44;52.01
21547;BME280;41275;51.912;4.388;2023-03-05T06:26:46;101951.91;;;10.41;51.54
21547;BME280;41275;51.912;4.388;2023-03-05T06:32:09;101936.00;;;10.34;51.79
21547;BME280;41275;51.912;4.388;2023-03-05T06:37:30;101939.69;;;10.40;51.57
21547;BME280;41275;51.912;4.388;2023-03-05T06:42:51;101932.00;;;10.51;51.22
21547;BME280;41275;51.912;4.388;2023-03-05T06:48:12;101927.16;;;10.62;50.93
21547;BME280;41275;51.912;4.388;2023-03-05T06:53:34;101933.25;;;10.69;50.83
21547;BME280;41275;51.912;4.388;2023-03-05T06:58:55;101925.56;;;10.74;50.50
21547;BME280;41275;51.912;4.388;2023-03-05T07:04:16;101924.97;;;10.98;50.02
21547;BME280;41275;51.912;4.388;2023-03-05T07:09:38;101928.03;;;11.02;49.78
21547;BME280;41275;51.912;4.388;2023-03-05T07:15:03;101913.56;;;11.11;49.81
21547;BME280;41275;51.912;4.388;2023-03-05T07:20:24;101915.03;;;11.20;49.44
21547;BME280;41275;51.912;4.388;2023-03-05T07:25:46;101916.22;;;11.31;49.09
21547;BME280;41275;51.912;4.388;2023-03-05T07:31:11;101905.63;;;11.18;49.12
21547;BME280;41275;51.912;4.388;2023-03-05T07:36:32;101906.03;;;11.08;49.14
21547;BME280;41275;51.912;4.388;2023-03-05T07:41:54;101906.06;;;11.21;48.93
21547;BME280;41275;51.912;4.388;2023-03-05T07:47:16;101905.81;;;11.49;48.92
21547;BME280;41275;51.912;4.388;2023-03-05T07:52:37;101907.22;;;11.85;48.28
21547;BME280;41275;51.912;4.388;2023-03-05T07:57:58;101922.09;;;11.86;47.70
21547;BME280;41275;51.912;4.388;2023-03-05T08:03:19;101917.66;;;11.27;48.18
21547;BME280;41275;51.912;4.388;2023-03-05T08:08:40;101909.72;;;11.14;48.53
21547;BME280;41275;51.912;4.388;2023-03-05T08:14:02;101905.44;;;11.13;48.73
21547;BME280;41275;51.912;4.388;2023-03-05T08:19:24;101900.31;;;11.31;48.59
21547;BME280;41275;51.912;4.388;2023-03-05T08:24:45;101895.03;;;11.44;48.87
21547;BME280;41275;51.912;4.388;2023-03-05T08:30:09;101891.56;;;11.37;48.64
21547;BME280;41275;51.912;4.388;2023-03-05T08:35:31;101885.44;;;11.43;49.09
21547;BME280;41275;51.912;4.388;2023-03-05T08:40:52;101876.03;;;11.54;49.08
21547;BME280;41275;51.912;4.388;2023-03-05T08:46:14;101871.50;;;11.74;48.68
21547;BME280;41275;51.912;4.388;2023-03-05T08:51:36;101861.91;;;11.87;48.23
21547;BME280;41275;51.912;4.388;2023-03-05T08:56:57;101864.84;;;12.17;48.32
21547;BME280;41275;51.912;4.388;2023-03-05T09:02:18;101850.22;;;12.46;47.83
21547;BME280;41275;51.912;4.388;2023-03-05T09:07:39;101860.06;;;12.70;47.91
21547;BME280;41275;51.912;4.388;2023-03-05T09:13:01;101841.91;;;12.92;47.24
21547;BME280;41275;51.912;4.388;2023-03-05T09:18:24;101839.38;;;13.04;46.67
21547;BME280;41275;51.912;4.388;2023-03-05T09:23:45;101841.25;;;13.29;46.54
21547;BME280;41275;51.912;4.388;2023-03-05T09:29:08;101859.47;;;13.25;46.32
21547;BME280;41275;51.912;4.388;2023-03-05T09:34:29;101858.09;;;12.59;46.37
21547;BME280;41275;51.912;4.388;2023-03-05T09:39:50;101856.41;;;12.33;47.03
21547;BME280;41275;51.912;4.388;2023-03-05T09:45:19;101848.31;;;12.53;47.07
21547;BME280;41275;51.912;4.388;2023-03-05T09:50:50;101847.88;;;12.63;46.79
21547;BME280;41275;51.912;4.388;2023-03-05T09:56:19;101847.88;;;12.88;46.62
21547;BME280;41275;51.912;4.388;2023-03-05T10:01:43;101834.06;;;13.29;45.85
21547;BME280;41275;51.912;4.388;2023-03-05T10:07:19;101838.66;;;13.59;45.45
21547;BME280;41275;51.912;4.388;2023-03-05T10:12:47;101829.28;;;14.23;44.41
21547;BME280;41275;51.912;4.388;2023-03-05T10:18:45;101818.19;;;14.56;43.55
21547;BME280;41275;51.912;4.388;2023-03-05T10:36:16;101791.28;;;14.16;41.70
21547;BME280;41275;51.912;4.388;2023-03-05T10:47:39;101775.38;;;13.97;40.86
21547;BME280;41275;51.912;4.388;2023-03-05T10:58:34;101759.69;;;14.73;39.82
21547;BME280;41275;51.912;4.388;2023-03-05T11:09:31;101743.38;;;14.93;39.07
21547;BME280;41275;51.912;4.388;2023-03-05T11:20:34;101735.34;;;15.05;37.93
21547;BME280;41275;51.912;4.388;2023-03-05T11:31:33;101719.47;;;15.62;37.17
21547;BME280;41275;51.912;4.388;2023-03-05T11:42:18;101696.63;;;15.54;36.51
21547;BME280;41275;51.912;4.388;2023-03-05T11:47:48;101697.44;;;15.55;36.48
21547;BME280;41275;51.912;4.388;2023-03-05T11:53:13;101699.78;;;15.51;36.74
21547;BME280;41275;51.912;4.388;2023-03-05T11:58:58;101695.09;;;15.30;36.96
21547;BME280;41275;51.912;4.388;2023-03-05T12:04:20;101680.13;;;15.29;38.09
21547;BME280;41275;51.912;4.388;2023-03-05T12:09:45;101668.25;;;15.08;37.91
21547;BME280;41275;51.912;4.388;2023-03-05T12:20:47;101653.19;;;15.42;37.54
21547;BME280;41275;51.912;4.388;2023-03-05T12:26:12;101643.28;;;15.54;36.70
21547;BME280;41275;51.912;4.388;2023-03-05T12:31:37;101640.00;;;15.35;36.93
21547;BME280;41275;51.912;4.388;2023-03-05T12:36:59;101619.09;;;15.15;36.13
21547;BME280;41275;51.912;4.388;2023-03-05T12:53:16;101584.47;;;15.94;34.14
21547;BME280;41275;51.912;4.388;2023-03-05T12:58:43;101581.00;;;15.94;33.80
21547;BME280;41275;51.912;4.388;2023-03-05T13:04:10;101570.66;;;15.81;34.66
21547;BME280;41275;51.912;4.388;2023-03-05T13:09:34;101572.59;;;15.68;34.34
21547;BME280;41275;51.912;4.388;2023-03-05T13:14:59;101560.84;;;15.24;35.25
21547;BME280;41275;51.912;4.388;2023-03-05T13:20:24;101554.59;;;15.02;35.70
21547;BME280;41275;51.912;4.388;2023-03-05T13:26:09;101542.13;;;14.90;35.88
21547;BME280;41275;51.912;4.388;2023-03-05T13:31:34;101535.84;;;14.56;36.31
21547;BME280;41275;51.912;4.388;2023-03-05T13:37:19;101530.41;;;14.51;36.42
21547;BME280;41275;51.912;4.388;2023-03-05T13:42:41;101518.00;;;14.45;36.39
21547;BME280;41275;51.912;4.388;2023-03-05T13:48:04;101507.81;;;14.30;36.39
21547;BME280;41275;51.912;4.388;2023-03-05T13:53:31;101508.97;;;14.34;36.15
21547;BME280;41275;51.912;4.388;2023-03-05T13:58:55;101505.84;;;14.49;36.19
21547;BME280;41275;51.912;4.388;2023-03-05T14:04:43;101500.63;;;14.66;37.26
21547;BME280;41275;51.912;4.388;2023-03-05T14:10:03;101490.91;;;14.60;38.04
21547;BME280;41275;51.912;4.388;2023-03-05T14:15:30;101491.06;;;14.18;38.82
21547;BME280;41275;51.912;4.388;2023-03-05T14:21:08;101487.97;;;13.86;39.69
21547;BME280;41275;51.912;4.388;2023-03-05T14:26:47;101478.34;;;14.20;40.11
21547;BME280;41275;51.912;4.388;2023-03-05T14:32:29;101471.06;;;14.15;39.77
21547;BME280;41275;51.912;4.388;2023-03-05T14:37:53;101458.22;;;14.12;39.83
21547;BME280;41275;51.912;4.388;2023-03-05T14:43:16;101450.63;;;13.92;40.12
21547;BME280;41275;51.912;4.388;2023-03-05T14:48:37;101440.69;;;13.64;40.82
21547;BME280;41275;51.912;4.388;2023-03-05T14:53:58;101438.72;;;13.60;40.78
21547;BME280;41275;51.912;4.388;2023-03-05T14:59:20;101435.00;;;13.37;40.93
21547;BME280;41275;51.912;4.388;2023-03-05T15:04:41;101425.47;;;13.18;41.20
21547;BME280;41275;51.912;4.388;2023-03-05T15:10:06;101412.25;;;12.99;41.14
21547;BME280;41275;51.912;4.388;2023-03-05T15:15:28;101405.31;;;12.98;41.31
21547;BME280;41275;51.912;4.388;2023-03-05T15:20:50;101407.91;;;13.17;41.26
21547;BME280;41275;51.912;4.388;2023-03-05T15:26:15;101397.13;;;13.12;40.94
21547;BME280;41275;51.912;4.388;2023-03-05T15:31:36;101384.19;;;13.15;40.90
21547;BME280;41275;51.912;4.388;2023-03-05T15:37:00;101382.09;;;12.94;40.62
21547;BME280;41275;51.912;4.388;2023-03-05T15:42:22;101372.38;;;12.88;41.23
21547;BME280;41275;51.912;4.388;2023-03-05T15:47:43;101371.22;;;12.95;41.19
21547;BME280;41275;51.912;4.388;2023-03-05T15:53:04;101369.41;;;13.19;41.32
21547;BME280;41275;51.912;4.388;2023-03-05T15:58:25;101357.16;;;13.07;41.44
21547;BME280;41275;51.912;4.388;2023-03-05T16:03:46;101355.09;;;13.09;41.72
21547;BME280;41275;51.912;4.388;2023-03-05T16:09:08;101347.31;;;12.84;41.59
21547;BME280;41275;51.912;4.388;2023-03-05T16:14:30;101346.81;;;12.63;41.40
21547;BME280;41275;51.912;4.388;2023-03-05T16:19:53;101334.31;;;12.52;41.40
21547;BME280;41275;51.912;4.388;2023-03-05T16:25:15;101321.44;;;12.37;41.76
21547;BME280;41275;51.912;4.388;2023-03-05T16:30:37;101314.59;;;12.29;41.89
21547;BME280;41275;51.912;4.388;2023-03-05T16:36:20;101315.31;;;12.37;42.39
21547;BME280;41275;51.912;4.388;2023-03-05T16:41:41;101310.66;;;12.20;42.52
21547;BME280;41275;51.912;4.388;2023-03-05T16:47:03;101303.00;;;12.12;42.63
21547;BME280;41275;51.912;4.388;2023-03-05T16:52:24;101294.00;;;12.13;43.05
21547;BME280;41275;51.912;4.388;2023-03-05T16:57:45;101306.41;;;12.01;43.30
21547;BME280;41275;51.912;4.388;2023-03-05T17:03:06;101289.34;;;11.97;43.55
21547;BME280;41275;51.912;4.388;2023-03-05T17:08:27;101299.31;;;11.83;43.97
21547;BME280;41275;51.912;4.388;2023-03-05T17:13:49;101290.44;;;11.71;44.23
21547;BME280;41275;51.912;4.388;2023-03-05T17:19:10;101298.03;;;11.86;44.55
21547;BME280;41275;51.912;4.388;2023-03-05T17:24:31;101288.91;;;11.63;44.86
21547;BME280;41275;51.912;4.388;2023-03-05T17:29:53;101299.50;;;11.45;45.29
21547;BME280;41275;51.912;4.388;2023-03-05T17:35:18;101292.50;;;11.32;45.62
21547;BME280;41275;51.912;4.388;2023-03-05T17:40:40;101292.56;;;11.25;45.86
21547;BME280;41275;51.912;4.388;2023-03-05T17:46:01;101288.88;;;11.26;46.35
21547;BME280;41275;51.912;4.388;2023-03-05T17:51:22;101285.81;;;11.29;45.91
21547;BME280;41275;51.912;4.388;2023-03-05T17:56:44;101281.91;;;11.32;45.96
21547;BME280;41275;51.912;4.388;2023-03-05T18:02:06;101278.28;;;11.26;45.53
21547;BME280;41275;51.912;4.388;2023-03-05T18:07:27;101291.97;;;11.23;45.62
21547;BME280;41275;51.912;4.388;2023-03-05T18:12:48;101280.09;;;11.07;45.81
21547;BME280;41275;51.912;4.388;2023-03-05T18:18:15;101265.91;;;11.02;46.29
21547;BME280;41275;51.912;4.388;2023-03-05T18:23:36;101264.16;;;11.14;46.44
21547;BME280;41275;51.912;4.388;2023-03-05T18:28:58;101254.44;;;11.26;46.21
21547;BME280;41275;51.912;4.388;2023-03-05T18:34:19;101263.91;;;11.16;46.47
21547;BME280;41275;51.912;4.388;2023-03-05T18:39:41;101251.41;;;11.23;46.21
21547;BME280;41275;51.912;4.388;2023-03-05T18:45:04;101247.38;;;11.39;46.29
21547;BME280;41275;51.912;4.388;2023-03-05T18:50:26;101227.50;;;11.29;46.17
21547;BME280;41275;51.912;4.388;2023-03-05T18:55:49;101226.84;;;11.34;46.22
21547;BME280;41275;51.912;4.388;2023-03-05T19:01:11;101222.28;;;11.41;46.30
21547;BME280;41275;51.912;4.388;2023-03-05T19:06:33;101218.53;;;11.49;46.23
21547;BME280;41275;51.912;4.388;2023-03-05T19:11:54;101210.69;;;11.54;45.87
21547;BME280;41275;51.912;4.388;2023-03-05T19:17:15;101206.38;;;11.60;45.62
21547;BME280;41275;51.912;4.388;2023-03-05T19:22:37;101197.13;;;11.62;45.30
21547;BME280;41275;51.912;4.388;2023-03-05T19:27:58;101189.63;;;11.59;45.35
21547;BME280;41275;51.912;4.388;2023-03-05T19:33:41;101187.66;;;11.54;45.71
21547;BME280;41275;51.912;4.388;2023-03-05T19:39:05;101176.88;;;11.38;45.95
21547;BME280;41275;51.912;4.388;2023-03-05T19:44:27;101171.94;;;11.41;45.83
21547;BME280;41275;51.912;4.388;2023-03-05T19:49:48;101167.66;;;11.40;45.71
21547;BME280;41275;51.912;4.388;2023-03-05T19:55:10;101161.22;;;11.18;46.29
21547;BME280;41275;51.912;4.388;2023-03-05T20:00:31;101153.75;;;11.08;46.70
21547;BME280;41275;51.912;4.388;2023-03-05T20:05:52;101143.25;;;11.01;46.61
21547;BME280;41275;51.912;4.388;2023-03-05T20:11:15;101151.72;;;10.92;46.56
21547;BME280;41275;51.912;4.388;2023-03-05T20:16:36;101144.41;;;10.69;47.14
21547;BME280;41275;51.912;4.388;2023-03-05T20:21:58;101142.94;;;10.54;47.22
21547;BME280;41275;51.912;4.388;2023-03-05T20:27:19;101138.75;;;10.65;47.46
21547;BME280;41275;51.912;4.388;2023-03-05T20:32:40;101133.63;;;10.70;47.60
21547;BME280;41275;51.912;4.388;2023-03-05T20:38:07;101132.94;;;10.75;47.85
21547;BME280;41275;51.912;4.388;2023-03-05T20:43:43;101128.81;;;10.61;47.39
21547;BME280;41275;51.912;4.388;2023-03-05T20:49:04;101125.44;;;10.53;48.24
21547;BME280;41275;51.912;4.388;2023-03-05T20:54:25;101127.00;;;10.61;47.69
21547;BME280;41275;51.912;4.388;2023-03-05T20:59:47;101124.59;;;10.53;47.99
21547;BME280;41275;51.912;4.388;2023-03-05T21:05:09;101121.63;;;10.49;47.98
21547;BME280;41275;51.912;4.388;2023-03-05T21:10:30;101113.53;;;10.63;48.05
21547;BME280;41275;51.912;4.388;2023-03-05T21:15:51;101115.09;;;10.70;48.11
21547;BME280;41275;51.912;4.388;2023-03-05T21:21:12;101099.47;;;10.80;48.02
21547;BME280;41275;51.912;4.388;2023-03-05T21:26:34;101096.25;;;10.78;47.84
21547;BME280;41275;51.912;4.388;2023-03-05T21:31:55;101086.09;;;10.75;47.99
21547;BME280;41275;51.912;4.388;2023-03-05T21:37:16;101078.53;;;10.79;47.83
21547;BME280;41275;51.912;4.388;2023-03-05T21:42:37;101077.28;;;10.81;48.05
21547;BME280;41275;51.912;4.388;2023-03-05T21:47:58;101073.19;;;10.86;47.89
21547;BME280;41275;51.912;4.388;2023-03-05T21:53:20;101068.00;;;10.91;48.14
21547;BME280;41275;51.912;4.388;2023-03-05T21:58:41;101073.75;;;10.88;47.96
21547;BME280;41275;51.912;4.388;2023-03-05T22:04:02;101059.75;;;10.99;47.74
21547;BME280;41275;51.912;4.388;2023-03-05T22:10:25;101053.22;;;11.01;47.79
21547;BME280;41275;51.912;4.388;2023-03-05T22:15:52;101044.31;;;10.96;47.59
21547;BME280;41275;51.912;4.388;2023-03-05T22:21:22;101039.25;;;10.94;47.58
21547;BME280;41275;51.912;4.388;2023-03-05T22:26:43;101019.41;;;10.85;47.78
21547;BME280;41275;51.912;4.388;2023-03-05T22:32:04;101016.78;;;10.85;47.62
21547;BME280;41275;51.912;4.388;2023-03-05T22:37:27;101009.63;;;10.86;47.69
21547;BME280;41275;51.912;4.388;2023-03-05T22:42:49;101000.78;;;10.92;47.68
21547;BME280;41275;51.912;4.388;2023-03-05T22:48:11;101004.03;;;10.94;47.54
21547;BME280;41275;51.912;4.388;2023-03-05T22:53:32;100988.88;;;11.01;47.90
21547;BME280;41275;51.912;4.388;2023-03-05T22:58:53;100987.03;;;11.01;47.73
21547;BME280;41275;51.912;4.388;2023-03-05T23:04:15;100976.06;;;10.98;47.87
21547;BME280;41275;51.912;4.388;2023-03-05T23:09:56;100971.13;;;11.01;47.54
21547;BME280;41275;51.912;4.388;2023-03-05T23:15:27;100955.69;;;10.98;47.38
21547;BME280;41275;51.912;4.388;2023-03-05T23:20:48;100955.28;;;10.83;47.52
21547;BME280;41275;51.912;4.388;2023-03-05T23:26:10;100951.50;;;10.61;47.49
21547;BME280;41275;51.912;4.388;2023-03-05T23:31:31;100954.03;;;10.37;47.99
21547;BME280;41275;51.912;4.388;2023-03-05T23:36:52;100952.59;;;10.16;48.51
21547;BME280;41275;51.912;4.388;2023-03-05T23:42:13;100947.47;;;10.03;48.56
21547;BME280;41275;51.912;4.388;2023-03-05T23:47:34;100941.44;;;9.96;49.00
21547;BME280;41275;51.912;4.388;2023-03-05T23:52:56;100947.59;;;9.90;48.76
21547;BME280;41275;51.912;4.388;2023-03-05T23:58:18;100941.84;;;9.74;49.50
